sensor_id;sensor_type;location;lat;lon;timestamp;P1;durP1;ratioP1;P2;durP2;ratioP2
2105;SDS011;1059;52.548;13.408;2022-11-20T00:01:26;18.83;;;13.53;;
2105;SDS011;1059;52.548;13.408;2022-11-20T00:03:55;23.37;;;14.47;;
2105;SDS011;1059;52.548;13.408;2022-11-20T00:06:24;19.73;;;13.20;;
2105;SDS011;1059;52.548;13.408;2022-11-20T00:08:53;24.93;;;13.73;;
2105;SDS011;1059;52.548;13.408;2022-11-20T00:11:22;22.73;;;13.20;;
2105;SDS011;1059;52.548;13.408;2022-11-20T00:13:50;19.40;;;12.10;;
2105;SDS011;1059;52.548;13.408;2022-11-20T00:16:20;21.90;;;13.70;;
2105;SDS011;1059;52.548;13.408;2022-11-20T00:18:48;20.03;;;12.67;;
2105;SDS011;1059;52.548;13.408;2022-11-20T00:21:16;21.20;;;13.63;;
2105;SDS011;1059;52.548;13.408;2022-11-20T00:23:46;20.70;;;13.30;;
2105;SDS011;1059;52.548;13.408;2022-11-20T00:26:14;18.97;;;12.53;;
2105;SDS011;1059;52.548;13.408;2022-11-20T00:28:44;22.10;;;14.33;;
2105;SDS011;1059;52.548;13.408;2022-11-20T00:31:15;21.33;;;13.13;;
2105;SDS011;1059;52.548;13.408;2022-11-20T00:33:43;21.30;;;12.97;;
2105;SDS011;1059;52.548;13.408;2022-11-20T00:36:11;20.23;;;13.30;;
2105;SDS011;1059;52.548;13.408;2022-11-20T00:38:39;24.07;;;13.33;;
2105;SDS011;1059;52.548;13.408;2022-11-20T00:41:08;23.90;;;15.57;;
2105;SDS011;1059;52.548;13.408;2022-11-20T00:43:37;19.10;;;14.20;;
2105;SDS011;1059;52.548;13.408;2022-11-20T00:46:05;21.53;;;14.17;;
2105;SDS011;1059;52.548;13.408;2022-11-20T00:48:33;22.80;;;13.57;;
2105;SDS011;1059;52.548;13.408;2022-11-20T00:51:00;21.20;;;13.30;;
2105;SDS011;1059;52.548;13.408;2022-11-20T00:53:27;19.73;;;13.17;;
2105;SDS011;1059;52.548;13.408;2022-11-20T00:55:54;22.00;;;14.03;;
2105;SDS011;1059;52.548;13.408;2022-11-20T00:58:24;26.10;;;14.87;;
2105;SDS011;1059;52.548;13.408;2022-11-20T01:00:59;24.33;;;14.70;;
2105;SDS011;1059;52.548;13.408;2022-11-20T01:03:27;23.87;;;14.67;;
2105;SDS011;1059;52.548;13.408;2022-11-20T01:05:54;23.03;;;15.40;;
2105;SDS011;1059;52.548;13.408;2022-11-20T01:08:25;20.43;;;13.37;;
2105;SDS011;1059;52.548;13.408;2022-11-20T01:10:58;24.03;;;14.80;;
2105;SDS011;1059;52.548;13.408;2022-11-20T01:13:27;26.93;;;15.60;;
2105;SDS011;1059;52.548;13.408;2022-11-20T01:16:03;21.10;;;14.70;;
2105;SDS011;1059;52.548;13.408;2022-11-20T01:18:32;22.30;;;14.33;;
2105;SDS011;1059;52.548;13.408;2022-11-20T01:21:00;21.80;;;15.97;;
2105;SDS011;1059;52.548;13.408;2022-11-20T01:23:30;19.80;;;14.73;;
2105;SDS011;1059;52.548;13.408;2022-11-20T01:25:59;20.50;;;14.70;;
2105;SDS011;1059;52.548;13.408;2022-11-20T01:28:28;20.93;;;14.20;;
2105;SDS011;1059;52.548;13.408;2022-11-20T01:30:56;23.73;;;13.50;;
2105;SDS011;1059;52.548;13.408;2022-11-20T01:33:27;18.53;;;11.90;;
2105;SDS011;1059;52.548;13.408;2022-11-20T01:36:02;19.87;;;12.83;;
2105;SDS011;1059;52.548;13.408;2022-11-20T01:38:30;21.80;;;13.20;;
2105;SDS011;1059;52.548;13.408;2022-11-20T01:40:57;28.40;;;13.87;;
2105;SDS011;1059;52.548;13.408;2022-11-20T01:43:24;21.17;;;14.00;;
2105;SDS011;1059;52.548;13.408;2022-11-20T01:48:43;22.53;;;14.20;;
2105;SDS011;1059;52.548;13.408;2022-11-20T01:51:19;23.97;;;14.23;;
2105;SDS011;1059;52.548;13.408;2022-11-20T01:53:51;21.53;;;14.23;;
2105;SDS011;1059;52.548;13.408;2022-11-20T01:56:20;18.00;;;12.90;;
2105;SDS011;1059;52.548;13.408;2022-11-20T01:58:48;21.73;;;12.40;;
2105;SDS011;1059;52.548;13.408;2022-11-20T02:01:20;19.73;;;13.40;;
2105;SDS011;1059;52.548;13.408;2022-11-20T02:03:47;15.80;;;11.97;;
2105;SDS011;1059;52.548;13.408;2022-11-20T02:06:17;20.10;;;12.63;;
2105;SDS011;1059;52.548;13.408;2022-11-20T02:08:49;20.57;;;14.50;;
2105;SDS011;1059;52.548;13.408;2022-11-20T02:11:17;20.60;;;12.63;;
2105;SDS011;1059;52.548;13.408;2022-11-20T02:13:44;28.67;;;15.30;;
2105;SDS011;1059;52.548;13.408;2022-11-20T02:16:15;17.37;;;11.77;;
2105;SDS011;1059;52.548;13.408;2022-11-20T02:18:53;18.50;;;12.37;;
2105;SDS011;1059;52.548;13.408;2022-11-20T02:21:24;21.83;;;12.97;;
2105;SDS011;1059;52.548;13.408;2022-11-20T02:24:07;19.83;;;13.67;;
2105;SDS011;1059;52.548;13.408;2022-11-20T02:26:41;20.03;;;13.63;;
2105;SDS011;1059;52.548;13.408;2022-11-20T02:29:12;20.30;;;11.90;;
2105;SDS011;1059;52.548;13.408;2022-11-20T02:31:41;22.53;;;14.17;;
2105;SDS011;1059;52.548;13.408;2022-11-20T02:34:09;19.87;;;13.40;;
2105;SDS011;1059;52.548;13.408;2022-11-20T02:36:36;21.40;;;13.50;;
2105;SDS011;1059;52.548;13.408;2022-11-20T02:39:08;20.13;;;12.03;;
2105;SDS011;1059;52.548;13.408;2022-11-20T02:41:37;19.50;;;13.37;;
2105;SDS011;1059;52.548;13.408;2022-11-20T02:44:05;18.43;;;13.20;;
2105;SDS011;1059;52.548;13.408;2022-11-20T02:46:32;23.63;;;13.50;;
2105;SDS011;1059;52.548;13.408;2022-11-20T02:49:00;18.17;;;11.63;;
2105;SDS011;1059;52.548;13.408;2022-11-20T02:51:27;19.67;;;12.70;;
2105;SDS011;1059;52.548;13.408;2022-11-20T02:53:54;18.47;;;13.10;;
2105;SDS011;1059;52.548;13.408;2022-11-20T02:56:23;21.27;;;13.70;;
2105;SDS011;1059;52.548;13.408;2022-11-20T02:58:50;17.73;;;12.93;;
2105;SDS011;1059;52.548;13.408;2022-11-20T03:01:17;20.23;;;12.97;;
2105;SDS011;1059;52.548;13.408;2022-11-20T03:03:44;22.03;;;14.60;;
2105;SDS011;1059;52.548;13.408;2022-11-20T03:06:13;19.80;;;13.80;;
2105;SDS011;1059;52.548;13.408;2022-11-20T03:08:40;20.10;;;13.77;;
2105;SDS011;1059;52.548;13.408;2022-11-20T03:11:08;18.70;;;14.30;;
2105;SDS011;1059;52.548;13.408;2022-11-20T03:13:36;20.97;;;13.57;;
2105;SDS011;1059;52.548;13.408;2022-11-20T03:16:07;21.80;;;13.47;;
2105;SDS011;1059;52.548;13.408;2022-11-20T03:18:36;23.30;;;14.23;;
2105;SDS011;1059;52.548;13.408;2022-11-20T03:21:03;21.57;;;14.77;;
2105;SDS011;1059;52.548;13.408;2022-11-20T03:23:31;17.77;;;13.80;;
2105;SDS011;1059;52.548;13.408;2022-11-20T03:26:12;22.37;;;14.93;;
2105;SDS011;1059;52.548;13.408;2022-11-20T03:28:45;22.00;;;13.87;;
2105;SDS011;1059;52.548;13.408;2022-11-20T03:31:14;19.53;;;14.30;;
2105;SDS011;1059;52.548;13.408;2022-11-20T03:33:43;20.10;;;16.00;;
2105;SDS011;1059;52.548;13.408;2022-11-20T03:36:11;24.97;;;17.40;;
2105;SDS011;1059;52.548;13.408;2022-11-20T03:38:39;26.67;;;18.40;;
2105;SDS011;1059;52.548;13.408;2022-11-20T03:41:07;27.97;;;17.37;;
2105;SDS011;1059;52.548;13.408;2022-11-20T03:43:35;25.93;;;16.63;;
2105;SDS011;1059;52.548;13.408;2022-11-20T03:46:04;24.90;;;16.80;;
2105;SDS011;1059;52.548;13.408;2022-11-20T03:48:32;28.53;;;17.00;;
2105;SDS011;1059;52.548;13.408;2022-11-20T03:51:06;32.30;;;17.80;;
2105;SDS011;1059;52.548;13.408;2022-11-20T03:53:35;26.60;;;17.30;;
2105;SDS011;1059;52.548;13.408;2022-11-20T03:56:02;23.83;;;16.50;;
2105;SDS011;1059;52.548;13.408;2022-11-20T03:58:29;24.20;;;15.83;;
2105;SDS011;1059;52.548;13.408;2022-11-20T04:00:56;23.60;;;14.90;;
2105;SDS011;1059;52.548;13.408;2022-11-20T04:03:24;23.97;;;15.57;;
2105;SDS011;1059;52.548;13.408;2022-11-20T04:05:52;24.10;;;15.50;;
2105;SDS011;1059;52.548;13.408;2022-11-20T04:08:18;22.70;;;14.90;;
2105;SDS011;1059;52.548;13.408;2022-11-20T04:10:45;22.83;;;13.60;;
2105;SDS011;1059;52.548;13.408;2022-11-20T04:13:12;17.53;;;12.87;;
2105;SDS011;1059;52.548;13.408;2022-11-20T04:15:39;21.37;;;14.27;;
2105;SDS011;1059;52.548;13.408;2022-11-20T04:18:06;22.60;;;14.47;;
2105;SDS011;1059;52.548;13.408;2022-11-20T04:20:34;21.00;;;13.30;;
2105;SDS011;1059;52.548;13.408;2022-11-20T04:23:01;22.43;;;14.10;;
2105;SDS011;1059;52.548;13.408;2022-11-20T04:25:28;19.63;;;13.20;;
2105;SDS011;1059;52.548;13.408;2022-11-20T04:27:55;24.53;;;14.70;;
2105;SDS011;1059;52.548;13.408;2022-11-20T04:30:22;21.63;;;14.80;;
2105;SDS011;1059;52.548;13.408;2022-11-20T04:32:49;21.37;;;15.03;;
2105;SDS011;1059;52.548;13.408;2022-11-20T04:35:16;23.30;;;14.87;;
2105;SDS011;1059;52.548;13.408;2022-11-20T04:37:44;22.40;;;14.63;;
2105;SDS011;1059;52.548;13.408;2022-11-20T04:40:11;17.47;;;13.53;;
2105;SDS011;1059;52.548;13.408;2022-11-20T04:42:38;23.30;;;14.20;;
2105;SDS011;1059;52.548;13.408;2022-11-20T04:45:05;20.40;;;14.57;;
2105;SDS011;1059;52.548;13.408;2022-11-20T04:47:33;19.33;;;13.50;;
2105;SDS011;1059;52.548;13.408;2022-11-20T04:50:00;26.10;;;14.80;;
2105;SDS011;1059;52.548;13.408;2022-11-20T04:52:27;19.30;;;14.53;;
2105;SDS011;1059;52.548;13.408;2022-11-20T04:54:55;19.97;;;13.93;;
2105;SDS011;1059;52.548;13.408;2022-11-20T04:57:22;22.13;;;14.90;;
2105;SDS011;1059;52.548;13.408;2022-11-20T04:59:49;18.27;;;12.73;;
2105;SDS011;1059;52.548;13.408;2022-11-20T05:02:16;23.07;;;14.53;;
2105;SDS011;1059;52.548;13.408;2022-11-20T05:04:43;22.10;;;13.17;;
2105;SDS011;1059;52.548;13.408;2022-11-20T05:07:10;20.00;;;13.70;;
2105;SDS011;1059;52.548;13.408;2022-11-20T05:09:36;21.67;;;14.10;;
2105;SDS011;1059;52.548;13.408;2022-11-20T05:12:06;19.93;;;13.73;;
2105;SDS011;1059;52.548;13.408;2022-11-20T05:14:34;22.23;;;13.33;;
2105;SDS011;1059;52.548;13.408;2022-11-20T05:17:01;22.40;;;13.30;;
2105;SDS011;1059;52.548;13.408;2022-11-20T05:19:27;21.97;;;13.53;;
2105;SDS011;1059;52.548;13.408;2022-11-20T05:21:54;19.67;;;13.80;;
2105;SDS011;1059;52.548;13.408;2022-11-20T05:24:21;20.63;;;13.97;;
2105;SDS011;1059;52.548;13.408;2022-11-20T05:26:48;19.40;;;13.37;;
2105;SDS011;1059;52.548;13.408;2022-11-20T05:29:17;19.67;;;13.10;;
2105;SDS011;1059;52.548;13.408;2022-11-20T05:31:43;25.33;;;14.33;;
2105;SDS011;1059;52.548;13.408;2022-11-20T05:34:10;21.97;;;14.93;;
2105;SDS011;1059;52.548;13.408;2022-11-20T05:36:37;19.97;;;12.93;;
2105;SDS011;1059;52.548;13.408;2022-11-20T05:39:04;20.97;;;13.30;;
2105;SDS011;1059;52.548;13.408;2022-11-20T05:41:32;19.57;;;13.77;;
2105;SDS011;1059;52.548;13.408;2022-11-20T05:43:59;22.37;;;13.73;;
2105;SDS011;1059;52.548;13.408;2022-11-20T05:46:28;22.93;;;13.77;;
2105;SDS011;1059;52.548;13.408;2022-11-20T05:48:55;20.90;;;14.70;;
2105;SDS011;1059;52.548;13.408;2022-11-20T05:51:22;21.20;;;13.10;;
2105;SDS011;1059;52.548;13.408;2022-11-20T05:53:49;22.27;;;14.57;;
2105;SDS011;1059;52.548;13.408;2022-11-20T05:56:17;20.53;;;14.73;;
2105;SDS011;1059;52.548;13.408;2022-11-20T05:58:45;21.20;;;13.90;;
2105;SDS011;1059;52.548;13.408;2022-11-20T06:01:14;22.93;;;14.17;;
2105;SDS011;1059;52.548;13.408;2022-11-20T06:03:43;20.17;;;13.80;;
2105;SDS011;1059;52.548;13.408;2022-11-20T06:06:12;21.50;;;13.90;;
2105;SDS011;1059;52.548;13.408;2022-11-20T06:08:39;18.37;;;13.20;;
2105;SDS011;1059;52.548;13.408;2022-11-20T06:11:08;22.70;;;13.10;;
2105;SDS011;1059;52.548;13.408;2022-11-20T06:13:36;20.70;;;13.80;;
2105;SDS011;1059;52.548;13.408;2022-11-20T06:16:03;22.50;;;13.63;;
2105;SDS011;1059;52.548;13.408;2022-11-20T06:18:31;22.20;;;13.77;;
2105;SDS011;1059;52.548;13.408;2022-11-20T06:21:03;17.20;;;13.07;;
2105;SDS011;1059;52.548;13.408;2022-11-20T06:23:32;19.77;;;13.30;;
2105;SDS011;1059;52.548;13.408;2022-11-20T06:26:01;19.10;;;12.50;;
2105;SDS011;1059;52.548;13.408;2022-11-20T06:28:29;19.43;;;12.90;;
2105;SDS011;1059;52.548;13.408;2022-11-20T06:30:56;21.53;;;14.33;;
2105;SDS011;1059;52.548;13.408;2022-11-20T06:33:23;28.10;;;16.97;;
2105;SDS011;1059;52.548;13.408;2022-11-20T06:35:50;19.60;;;14.40;;
2105;SDS011;1059;52.548;13.408;2022-11-20T06:38:19;21.03;;;13.50;;
2105;SDS011;1059;52.548;13.408;2022-11-20T06:40:45;20.00;;;13.03;;
2105;SDS011;1059;52.548;13.408;2022-11-20T06:43:12;20.93;;;13.20;;
2105;SDS011;1059;52.548;13.408;2022-11-20T06:45:40;21.60;;;13.47;;
2105;SDS011;1059;52.548;13.408;2022-11-20T06:48:07;19.10;;;13.27;;
2105;SDS011;1059;52.548;13.408;2022-11-20T06:50:35;20.20;;;13.47;;
2105;SDS011;1059;52.548;13.408;2022-11-20T06:53:03;22.90;;;13.10;;
2105;SDS011;1059;52.548;13.408;2022-11-20T06:55:32;22.67;;;14.53;;
2105;SDS011;1059;52.548;13.408;2022-11-20T06:57:59;20.20;;;12.40;;
2105;SDS011;1059;52.548;13.408;2022-11-20T07:00:25;17.53;;;11.97;;
2105;SDS011;1059;52.548;13.408;2022-11-20T07:02:52;20.00;;;13.60;;
2105;SDS011;1059;52.548;13.408;2022-11-20T07:05:20;21.23;;;13.93;;
2105;SDS011;1059;52.548;13.408;2022-11-20T07:07:47;20.23;;;14.13;;
2105;SDS011;1059;52.548;13.408;2022-11-20T07:10:13;21.63;;;14.03;;
2105;SDS011;1059;52.548;13.408;2022-11-20T07:12:42;19.50;;;12.90;;
2105;SDS011;1059;52.548;13.408;2022-11-20T07:15:15;21.17;;;13.67;;
2105;SDS011;1059;52.548;13.408;2022-11-20T07:17:41;25.33;;;14.27;;
2105;SDS011;1059;52.548;13.408;2022-11-20T07:20:09;23.60;;;14.90;;
2105;SDS011;1059;52.548;13.408;2022-11-20T07:22:36;23.30;;;16.10;;
2105;SDS011;1059;52.548;13.408;2022-11-20T07:25:03;21.93;;;14.00;;
2105;SDS011;1059;52.548;13.408;2022-11-20T07:27:31;21.10;;;13.50;;
2105;SDS011;1059;52.548;13.408;2022-11-20T07:29:59;22.10;;;14.27;;
2105;SDS011;1059;52.548;13.408;2022-11-20T07:32:27;22.20;;;14.37;;
2105;SDS011;1059;52.548;13.408;2022-11-20T07:34:53;22.13;;;12.83;;
2105;SDS011;1059;52.548;13.408;2022-11-20T07:37:20;22.10;;;14.53;;
2105;SDS011;1059;52.548;13.408;2022-11-20T07:39:47;20.27;;;13.27;;
2105;SDS011;1059;52.548;13.408;2022-11-20T07:42:14;22.33;;;15.10;;
2105;SDS011;1059;52.548;13.408;2022-11-20T07:44:41;19.07;;;13.30;;
2105;SDS011;1059;52.548;13.408;2022-11-20T07:47:09;22.70;;;14.67;;
2105;SDS011;1059;52.548;13.408;2022-11-20T07:49:36;20.83;;;13.83;;
2105;SDS011;1059;52.548;13.408;2022-11-20T07:52:03;23.60;;;15.27;;
2105;SDS011;1059;52.548;13.408;2022-11-20T07:54:30;19.03;;;14.43;;
2105;SDS011;1059;52.548;13.408;2022-11-20T07:56:57;20.83;;;14.43;;
2105;SDS011;1059;52.548;13.408;2022-11-20T07:59:24;19.73;;;15.27;;
2105;SDS011;1059;52.548;13.408;2022-11-20T08:01:51;21.90;;;14.10;;
2105;SDS011;1059;52.548;13.408;2022-11-20T08:04:19;24.80;;;15.03;;
2105;SDS011;1059;52.548;13.408;2022-11-20T08:06:46;22.30;;;15.23;;
2105;SDS011;1059;52.548;13.408;2022-11-20T08:09:13;21.57;;;14.17;;
2105;SDS011;1059;52.548;13.408;2022-11-20T08:11:40;21.00;;;14.97;;
2105;SDS011;1059;52.548;13.408;2022-11-20T08:14:25;21.67;;;14.87;;
2105;SDS011;1059;52.548;13.408;2022-11-20T08:16:52;22.97;;;15.13;;
2105;SDS011;1059;52.548;13.408;2022-11-20T08:19:21;21.57;;;14.47;;
2105;SDS011;1059;52.548;13.408;2022-11-20T08:21:47;20.80;;;14.17;;
2105;SDS011;1059;52.548;13.408;2022-11-20T08:24:14;21.80;;;14.97;;
2105;SDS011;1059;52.548;13.408;2022-11-20T08:26:42;23.33;;;14.53;;
2105;SDS011;1059;52.548;13.408;2022-11-20T08:29:09;20.43;;;14.63;;
2105;SDS011;1059;52.548;13.408;2022-11-20T08:31:36;21.50;;;13.90;;
2105;SDS011;1059;52.548;13.408;2022-11-20T08:34:03;22.53;;;14.43;;
2105;SDS011;1059;52.548;13.408;2022-11-20T08:36:32;20.63;;;12.90;;
2105;SDS011;1059;52.548;13.408;2022-11-20T08:39:00;22.80;;;14.90;;
2105;SDS011;1059;52.548;13.408;2022-11-20T08:41:26;17.00;;;12.60;;
2105;SDS011;1059;52.548;13.408;2022-11-20T08:43:58;20.43;;;13.93;;
2105;SDS011;1059;52.548;13.408;2022-11-20T08:46:27;22.67;;;15.30;;
2105;SDS011;1059;52.548;13.408;2022-11-20T08:48:58;22.57;;;15.03;;
2105;SDS011;1059;52.548;13.408;2022-11-20T08:51:25;22.37;;;14.07;;
2105;SDS011;1059;52.548;13.408;2022-11-20T08:53:53;32.17;;;16.47;;
2105;SDS011;1059;52.548;13.408;2022-11-20T08:56:20;21.60;;;14.47;;
2105;SDS011;1059;52.548;13.408;2022-11-20T08:58:47;24.90;;;14.67;;
2105;SDS011;1059;52.548;13.408;2022-11-20T09:01:15;21.90;;;15.77;;
2105;SDS011;1059;52.548;13.408;2022-11-20T09:03:42;22.87;;;14.73;;
2105;SDS011;1059;52.548;13.408;2022-11-20T09:06:09;26.93;;;15.07;;
2105;SDS011;1059;52.548;13.408;2022-11-20T09:08:36;21.33;;;14.77;;
2105;SDS011;1059;52.548;13.408;2022-11-20T09:11:05;23.17;;;14.47;;
2105;SDS011;1059;52.548;13.408;2022-11-20T09:13:33;20.13;;;13.80;;
2105;SDS011;1059;52.548;13.408;2022-11-20T09:16:02;25.57;;;15.53;;
2105;SDS011;1059;52.548;13.408;2022-11-20T09:18:31;24.47;;;15.03;;
2105;SDS011;1059;52.548;13.408;2022-11-20T09:20:59;26.50;;;15.57;;
2105;SDS011;1059;52.548;13.408;2022-11-20T09:23:27;19.40;;;14.30;;
2105;SDS011;1059;52.548;13.408;2022-11-20T09:25:57;22.60;;;15.30;;
2105;SDS011;1059;52.548;13.408;2022-11-20T09:28:29;28.23;;;16.70;;
2105;SDS011;1059;52.548;13.408;2022-11-20T09:30:56;23.27;;;15.57;;
2105;SDS011;1059;52.548;13.408;2022-11-20T09:33:23;22.00;;;13.87;;
2105;SDS011;1059;52.548;13.408;2022-11-20T09:35:50;21.90;;;14.20;;
2105;SDS011;1059;52.548;13.408;2022-11-20T09:38:17;26.30;;;14.30;;
2105;SDS011;1059;52.548;13.408;2022-11-20T09:40:45;19.97;;;14.33;;
2105;SDS011;1059;52.548;13.408;2022-11-20T09:43:18;20.93;;;14.23;;
2105;SDS011;1059;52.548;13.408;2022-11-20T09:45:58;21.17;;;15.13;;
2105;SDS011;1059;52.548;13.408;2022-11-20T09:51:24;22.77;;;14.10;;
2105;SDS011;1059;52.548;13.408;2022-11-20T09:54:01;21.63;;;15.50;;
2105;SDS011;1059;52.548;13.408;2022-11-20T09:56:40;23.03;;;15.07;;
2105;SDS011;1059;52.548;13.408;2022-11-20T09:59:13;22.20;;;13.77;;
2105;SDS011;1059;52.548;13.408;2022-11-20T10:01:47;21.20;;;14.27;;
2105;SDS011;1059;52.548;13.408;2022-11-20T10:04:15;21.43;;;14.33;;
2105;SDS011;1059;52.548;13.408;2022-11-20T10:06:47;21.40;;;14.53;;
2105;SDS011;1059;52.548;13.408;2022-11-20T10:09:19;24.43;;;14.67;;
2105;SDS011;1059;52.548;13.408;2022-11-20T10:11:54;20.87;;;15.40;;
2105;SDS011;1059;52.548;13.408;2022-11-20T10:14:34;22.00;;;14.97;;
2105;SDS011;1059;52.548;13.408;2022-11-20T10:17:16;20.77;;;13.57;;
2105;SDS011;1059;52.548;13.408;2022-11-20T10:20:00;18.60;;;14.33;;
2105;SDS011;1059;52.548;13.408;2022-11-20T10:22:40;20.53;;;13.53;;
2105;SDS011;1059;52.548;13.408;2022-11-20T10:25:15;22.20;;;13.77;;
2105;SDS011;1059;52.548;13.408;2022-11-20T10:30:34;21.47;;;14.60;;
2105;SDS011;1059;52.548;13.408;2022-11-20T10:33:06;19.23;;;13.67;;
2105;SDS011;1059;52.548;13.408;2022-11-20T10:35:40;21.60;;;13.23;;
2105;SDS011;1059;52.548;13.408;2022-11-20T10:38:12;22.97;;;14.57;;
2105;SDS011;1059;52.548;13.408;2022-11-20T10:40:44;24.37;;;14.00;;
2105;SDS011;1059;52.548;13.408;2022-11-20T10:43:15;20.13;;;13.50;;
2105;SDS011;1059;52.548;13.408;2022-11-20T10:45:47;22.17;;;14.30;;
2105;SDS011;1059;52.548;13.408;2022-11-20T10:48:20;26.07;;;14.63;;
2105;SDS011;1059;52.548;13.408;2022-11-20T10:50:57;21.30;;;14.40;;
2105;SDS011;1059;52.548;13.408;2022-11-20T10:53:39;21.23;;;14.10;;
2105;SDS011;1059;52.548;13.408;2022-11-20T10:56:14;19.97;;;13.77;;
2105;SDS011;1059;52.548;13.408;2022-11-20T10:58:45;19.53;;;13.07;;
2105;SDS011;1059;52.548;13.408;2022-11-20T11:01:21;20.80;;;14.60;;
2105;SDS011;1059;52.548;13.408;2022-11-20T11:03:50;19.13;;;13.53;;
2105;SDS011;1059;52.548;13.408;2022-11-20T11:06:20;20.10;;;12.67;;
2105;SDS011;1059;52.548;13.408;2022-11-20T11:08:55;17.37;;;13.03;;
2105;SDS011;1059;52.548;13.408;2022-11-20T11:11:26;19.40;;;12.67;;
2105;SDS011;1059;52.548;13.408;2022-11-20T11:14:03;17.77;;;12.67;;
2105;SDS011;1059;52.548;13.408;2022-11-20T11:16:31;20.90;;;13.30;;
2105;SDS011;1059;52.548;13.408;2022-11-20T11:19:06;18.93;;;12.03;;
2105;SDS011;1059;52.548;13.408;2022-11-20T11:21:38;20.33;;;12.33;;
2105;SDS011;1059;52.548;13.408;2022-11-20T11:24:15;19.60;;;13.70;;
2105;SDS011;1059;52.548;13.408;2022-11-20T11:26:51;18.73;;;13.80;;
2105;SDS011;1059;52.548;13.408;2022-11-20T11:29:21;17.13;;;13.37;;
2105;SDS011;1059;52.548;13.408;2022-11-20T11:31:48;18.50;;;13.60;;
2105;SDS011;1059;52.548;13.408;2022-11-20T11:34:17;16.90;;;12.20;;
2105;SDS011;1059;52.548;13.408;2022-11-20T11:36:49;16.70;;;12.03;;
2105;SDS011;1059;52.548;13.408;2022-11-20T11:39:22;18.13;;;12.20;;
2105;SDS011;1059;52.548;13.408;2022-11-20T11:41:51;20.30;;;12.27;;
2105;SDS011;1059;52.548;13.408;2022-11-20T11:44:19;12.80;;;10.70;;
2105;SDS011;1059;52.548;13.408;2022-11-20T11:47:05;17.67;;;11.20;;
2105;SDS011;1059;52.548;13.408;2022-11-20T11:49:39;15.90;;;12.70;;
2105;SDS011;1059;52.548;13.408;2022-11-20T11:52:08;21.10;;;12.63;;
2105;SDS011;1059;52.548;13.408;2022-11-20T11:54:41;15.50;;;11.50;;
2105;SDS011;1059;52.548;13.408;2022-11-20T11:57:16;16.30;;;11.67;;
2105;SDS011;1059;52.548;13.408;2022-11-20T11:59:56;14.93;;;11.03;;
2105;SDS011;1059;52.548;13.408;2022-11-20T12:02:31;14.47;;;10.93;;
2105;SDS011;1059;52.548;13.408;2022-11-20T12:05:05;15.67;;;11.50;;
2105;SDS011;1059;52.548;13.408;2022-11-20T12:07:42;16.77;;;11.37;;
2105;SDS011;1059;52.548;13.408;2022-11-20T12:10:14;18.77;;;12.10;;
2105;SDS011;1059;52.548;13.408;2022-11-20T12:12:46;16.70;;;11.40;;
2105;SDS011;1059;52.548;13.408;2022-11-20T12:15:22;20.67;;;11.73;;
2105;SDS011;1059;52.548;13.408;2022-11-20T12:17:54;17.50;;;11.63;;
2105;SDS011;1059;52.548;13.408;2022-11-20T12:20:24;16.50;;;11.93;;
2105;SDS011;1059;52.548;13.408;2022-11-20T12:22:56;15.97;;;12.00;;
2105;SDS011;1059;52.548;13.408;2022-11-20T12:25:31;16.80;;;11.40;;
2105;SDS011;1059;52.548;13.408;2022-11-20T12:28:04;13.27;;;10.53;;
2105;SDS011;1059;52.548;13.408;2022-11-20T12:30:48;20.73;;;11.83;;
2105;SDS011;1059;52.548;13.408;2022-11-20T12:33:28;15.73;;;10.90;;
2105;SDS011;1059;52.548;13.408;2022-11-20T12:36:10;15.47;;;11.10;;
2105;SDS011;1059;52.548;13.408;2022-11-20T12:38:50;17.90;;;10.83;;
2105;SDS011;1059;52.548;13.408;2022-11-20T12:41:43;13.03;;;10.30;;
2105;SDS011;1059;52.548;13.408;2022-11-20T12:44:57;13.77;;;9.70;;
2105;SDS011;1059;52.548;13.408;2022-11-20T12:47:48;12.80;;;10.20;;
2105;SDS011;1059;52.548;13.408;2022-11-20T12:50:39;12.77;;;9.30;;
2105;SDS011;1059;52.548;13.408;2022-11-20T12:53:20;14.07;;;10.60;;
2105;SDS011;1059;52.548;13.408;2022-11-20T12:55:56;14.83;;;9.90;;
2105;SDS011;1059;52.548;13.408;2022-11-20T12:58:33;17.10;;;10.03;;
2105;SDS011;1059;52.548;13.408;2022-11-20T13:01:09;11.03;;;8.73;;
2105;SDS011;1059;52.548;13.408;2022-11-20T13:04:08;11.20;;;7.30;;
2105;SDS011;1059;52.548;13.408;2022-11-20T13:06:50;9.10;;;6.77;;
2105;SDS011;1059;52.548;13.408;2022-11-20T13:09:19;9.60;;;6.87;;
2105;SDS011;1059;52.548;13.408;2022-11-20T13:11:50;10.30;;;7.80;;
2105;SDS011;1059;52.548;13.408;2022-11-20T13:14:26;14.77;;;7.93;;
2105;SDS011;1059;52.548;13.408;2022-11-20T13:17:00;9.80;;;7.17;;
2105;SDS011;1059;52.548;13.408;2022-11-20T13:19:32;11.00;;;8.07;;
2105;SDS011;1059;52.548;13.408;2022-11-20T13:22:00;9.50;;;6.90;;
2105;SDS011;1059;52.548;13.408;2022-11-20T13:24:29;16.33;;;8.20;;
2105;SDS011;1059;52.548;13.408;2022-11-20T13:27:04;13.80;;;8.20;;
2105;SDS011;1059;52.548;13.408;2022-11-20T13:29:46;11.17;;;8.30;;
2105;SDS011;1059;52.548;13.408;2022-11-20T13:32:24;13.50;;;9.27;;
2105;SDS011;1059;52.548;13.408;2022-11-20T13:34:57;12.33;;;8.23;;
2105;SDS011;1059;52.548;13.408;2022-11-20T13:37:26;10.63;;;7.97;;
2105;SDS011;1059;52.548;13.408;2022-11-20T13:42:54;13.57;;;9.10;;
2105;SDS011;1059;52.548;13.408;2022-11-20T13:45:27;11.93;;;7.53;;
2105;SDS011;1059;52.548;13.408;2022-11-20T13:47:56;13.50;;;9.10;;
2105;SDS011;1059;52.548;13.408;2022-11-20T13:50:31;14.47;;;10.00;;
2105;SDS011;1059;52.548;13.408;2022-11-20T13:53:08;14.77;;;9.60;;
2105;SDS011;1059;52.548;13.408;2022-11-20T13:55:50;15.20;;;10.50;;
2105;SDS011;1059;52.548;13.408;2022-11-20T13:58:25;15.50;;;11.00;;
2105;SDS011;1059;52.548;13.408;2022-11-20T14:01:07;16.60;;;11.90;;
2105;SDS011;1059;52.548;13.408;2022-11-20T14:03:37;16.87;;;11.60;;
2105;SDS011;1059;52.548;13.408;2022-11-20T14:06:05;16.13;;;11.47;;
2105;SDS011;1059;52.548;13.408;2022-11-20T14:08:40;14.40;;;10.10;;
2105;SDS011;1059;52.548;13.408;2022-11-20T14:11:16;13.53;;;9.63;;
2105;SDS011;1059;52.548;13.408;2022-11-20T14:13:58;13.10;;;9.30;;
2105;SDS011;1059;52.548;13.408;2022-11-20T14:16:28;14.43;;;10.63;;
2105;SDS011;1059;52.548;13.408;2022-11-20T14:18:56;14.20;;;10.73;;
2105;SDS011;1059;52.548;13.408;2022-11-20T14:21:42;15.30;;;10.60;;
2105;SDS011;1059;52.548;13.408;2022-11-20T14:24:10;12.90;;;9.57;;
2105;SDS011;1059;52.548;13.408;2022-11-20T14:26:40;14.13;;;9.93;;
2105;SDS011;1059;52.548;13.408;2022-11-20T14:29:10;13.80;;;10.07;;
2105;SDS011;1059;52.548;13.408;2022-11-20T14:31:39;14.07;;;10.37;;
2105;SDS011;1059;52.548;13.408;2022-11-20T14:34:10;11.80;;;9.40;;
2105;SDS011;1059;52.548;13.408;2022-11-20T14:36:41;14.17;;;10.57;;
2105;SDS011;1059;52.548;13.408;2022-11-20T14:39:10;15.43;;;10.17;;
2105;SDS011;1059;52.548;13.408;2022-11-20T14:41:49;14.60;;;10.57;;
2105;SDS011;1059;52.548;13.408;2022-11-20T14:44:17;16.23;;;10.87;;
2105;SDS011;1059;52.548;13.408;2022-11-20T14:46:46;14.13;;;9.57;;
2105;SDS011;1059;52.548;13.408;2022-11-20T14:49:13;15.70;;;11.40;;
2105;SDS011;1059;52.548;13.408;2022-11-20T14:51:40;14.47;;;10.40;;
2105;SDS011;1059;52.548;13.408;2022-11-20T14:54:08;16.63;;;11.47;;
2105;SDS011;1059;52.548;13.408;2022-11-20T14:56:36;17.90;;;13.43;;
2105;SDS011;1059;52.548;13.408;2022-11-20T14:59:04;19.63;;;12.03;;
2105;SDS011;1059;52.548;13.408;2022-11-20T15:01:33;20.23;;;11.60;;
2105;SDS011;1059;52.548;13.408;2022-11-20T15:04:01;18.47;;;11.70;;
2105;SDS011;1059;52.548;13.408;2022-11-20T15:06:31;19.53;;;12.00;;